Latest Coastal Weather Observations for Hogan Island

IDT60701

Issued at 12:41 pm EDT Monday 2 February 2015 (issued every 10 minutes, with the page automatically refreshed every 10 minutes)

About coastal observations | Map of coastal stations | Coastal observations for TAS | Marine services | Other Formats
Station Details ID: 200838 Name: HOGAN ISLAND Lat: -39.22 Lon: 146.98 Height: 116.0 m
Data from the previous 72 hours. | See also: Recent months at Hogan Island
Date/Time
EDT
Temp

°C
Wind Pressure Rain
since 9am
mm
Weather Cloud Vis
km
Sea
Height
m
Swell
Dir
 
Speed
knots
Gust
knots
hPa Trend Height
m
Period
s
Dir
02/12:30pm 19.9 NNE 10 14 1020.3 - 0.0 - - - - - - -
02/12:00pm 19.0 ENE 10 13 1020.0 - 0.0 - - - - - - -
02/11:30am 18.8 ENE 9 13 1020.4 - 0.0 - - - - - - -
02/11:00am 18.4 ENE 10 13 1020.4 - 0.0 - - - - - - -
02/10:30am 18.0 ENE 12 14 1019.7 - 0.0 - - - - - - -
02/10:00am 17.7 ENE 13 14 1019.4 - 0.0 - - - - - - -
02/09:30am 17.3 ENE 11 14 1019.2 - 0.0 - - - - - - -
02/09:00am 16.7 E 13 15 1018.8 - 0.0 - - - - - - -
02/08:30am 16.8 E 14 18 1018.5 - 0.0 - - - - - - -
02/08:00am 14.9 E 15 17 1018.3 - 0.0 - - - - - - -
02/07:30am 14.9 E 13 16 1017.9 - 0.0 - - - - - - -
02/07:00am 14.6 E 14 16 1017.6 - 0.0 - - - - - - -
02/06:30am 14.3 E 15 18 1017.2 - 0.0 - - - - - - -
02/06:00am 14.5 E 16 17 1016.6 - 0.0 - - - - - - -
02/05:30am 14.4 E 15 18 1016.5 - 0.0 - - - - - - -
02/05:00am 14.6 E 16 19 1016.2 - 0.0 - - - - - - -
02/04:30am 15.3 E 14 16 1016.2 - 0.0 - - - - - - -
02/04:00am 15.5 ENE 12 14 1016.1 - 0.0 - - - - - - -
02/03:30am 15.5 ENE 12 14 1016.1 - 0.0 - - - - - - -
02/03:00am 15.5 ENE 13 15 1015.8 - 0.0 - - - - - - -
02/02:30am 15.4 ENE 13 15 1016.3 - 0.0 - - - - - - -
02/02:00am 15.3 ENE 13 15 1016.4 - 0.0 - - - - - - -
02/01:30am 15.2 ENE 13 15 1016.4 - 0.0 - - - - - - -
02/01:00am 15.2 ENE 13 15 1016.6 - 0.0 - - - - - - -
02/12:30am 15.1 ENE 14 15 1016.5 - 0.0 - - - - - - -
02/12:00am 15.5 ENE 13 15 1016.2 - 0.0 - - - - - - -
 
Date/Time
EDT
Temp

°C
Wind Pressure Rain
since 9am
mm
Weather Cloud Vis
km
Sea
Height
m
Swell
Dir
 
Speed
knots
Gust
knots
hPa Trend Height
m
Period
s
Dir
01/11:30pm 15.7 ENE 13 15 1016.4 - 0.0 - - - - - - -
01/11:00pm 15.7 ENE 12 14 1016.4 - 0.0 - - - - - - -
01/10:30pm 15.6 ENE 11 14 1016.1 - 0.0 - - - - - - -
01/10:00pm 15.2 ENE 14 16 1015.8 - 0.0 - - - - - - -
01/09:30pm 15.2 ENE 13 15 1015.5 - 0.0 - - - - - - -
01/09:00pm 15.3 ENE 12 15 1014.8 - 0.0 - - - - - - -
01/08:30pm 15.3 ENE 12 14 1015.0 - 0.0 - - - - - - -
01/08:00pm 16.0 ENE 13 15 1014.8 - 0.0 - - - - - - -
01/07:30pm 16.3 ENE 11 15 1014.5 - 0.0 - - - - - - -
01/07:00pm 17.3 E 10 13 1014.3 - 0.0 - - - - - - -
01/06:30pm 18.1 ENE 10 12 1013.8 - 0.0 - - - - - - -
01/06:00pm 18.9 ENE 10 12 1013.3 - 0.0 - - - - - - -
01/05:30pm 19.2 ENE 10 12 1013.4 - 0.0 - - - - - - -
01/05:00pm 19.6 NE 10 12 1013.3 - 0.0 - - - - - - -
01/04:30pm 19.2 NNE 10 13 1013.3 - 0.0 - - - - - - -
01/04:00pm 19.3 NNE 11 14 1013.2 - 0.0 - - - - - - -
01/03:30pm 18.9 NNE 11 14 1013.2 - 0.0 - - - - - - -
01/03:00pm 19.9 NNE 12 14 1012.9 - 0.0 - - - - - - -
01/02:30pm 20.4 NNE 11 15 1013.2 - 0.0 - - - - - - -
01/02:00pm 20.4 NNE 13 15 1013.1 - 0.0 - - - - - - -
01/01:30pm 20.4 NE 13 16 1013.2 - 0.0 - - - - - - -
01/01:00pm 19.9 NE 14 16 1013.2 - 0.0 - - - - - - -
01/12:30pm 18.5 NE 13 16 1013.2 - 0.0 - - - - - - -
01/12:00pm 19.0 ENE 12 15 1013.0 - 0.0 - - - - - - -
01/11:30am 19.5 NE 12 15 1013.0 - 0.0 - - - - - - -
01/11:00am 18.3 NE 11 15 1012.8 - 0.0 - - - - - - -
01/10:30am 17.7 NE 11 13 1012.7 - 0.0 - - - - - - -
01/10:00am 16.5 NE 9 11 1012.5 - 0.0 - - - - - - -
01/09:30am 15.8 NE 12 14 1012.4 - 0.0 - - - - - - -
01/09:00am 17.5 WSW 11 12 1011.7 - 0.0 - - - - - - -
01/08:30am 16.8 WSW 11 13 1011.6 - 0.0 - - - - - - -
01/08:00am 16.4 WSW 14 15 1011.2 - 0.0 - - - - - - -
01/07:30am 16.3 WSW 14 16 1010.9 - 0.0 - - - - - - -
01/07:00am 16.0 WSW 14 17 1010.5 - 0.0 - - - - - - -
01/06:30am 15.9 WSW 16 18 1010.2 - 0.0 - - - - - - -
01/06:00am 15.9 W 18 20 1009.6 - 0.0 - - - - - - -
01/05:30am 16.0 W 20 22 1009.6 - 0.0 - - - - - - -
01/05:00am 16.0 W 21 24 1009.6 - 0.0 - - - - - - -
01/04:30am 16.0 W 21 23 1009.5 - 0.0 - - - - - - -
01/04:00am 15.9 W 20 23 1009.5 - 0.0 - - - - - - -
01/03:30am 15.9 W 21 23 1009.6 - 0.0 - - - - - - -
01/03:00am 16.0 W 20 23 1009.3 - 0.0 - - - - - - -
01/02:30am 16.1 W 20 22 1009.7 - 0.0 - - - - - - -
01/02:00am 15.8 W 18 22 1009.7 - 0.0 - - - - - - -
01/01:30am 15.8 W 19 22 1010.0 - 0.0 - - - - - - -
01/01:00am 16.1 W 20 22 1010.2 - 0.0 - - - - - - -
01/12:30am 16.3 W 19 22 1010.4 - 0.0 - - - - - - -
01/12:00am 16.4 W 22 25 1010.2 - 0.0 - - - - - - -
 
Date/Time
EDT
Temp

°C
Wind Pressure Rain
since 9am
mm
Weather Cloud Vis
km
Sea
Height
m
Swell
Dir
 
Speed
knots
Gust
knots
hPa Trend Height
m
Period
s
Dir
31/11:30pm 16.3 W 21 25 1010.6 - 0.0 - - - - - - -
31/11:00pm 16.1 W 21 25 1010.6 - 0.0 - - - - - - -
31/10:30pm 15.9 W 21 25 1010.6 - 0.0 - - - - - - -
31/10:00pm 15.7 W 19 23 1010.6 - 0.0 - - - - - - -
31/09:30pm 15.6 W 19 22 1010.4 - 0.0 - - - - - - -
31/09:00pm 15.9 W 19 22 1010.0 - 0.0 - - - - - - -
31/08:30pm 15.9 W 22 24 1009.9 - 0.0 - - - - - - -
31/08:00pm 16.4 W 21 25 1009.7 - 0.0 - - - - - - -
31/07:30pm 16.4 W 20 23 1009.6 - 0.0 - - - - - - -
31/07:00pm 16.8 W 20 23 1009.4 - 0.0 - - - - - - -
31/06:30pm 17.4 W 21 24 1009.2 - 0.0 - - - - - - -
31/06:00pm 18.3 W 22 25 1009.0 - 0.0 - - - - - - -
31/05:30pm 18.9 W 22 25 1009.2 - 0.0 - - - - - - -
31/05:00pm 18.0 WSW 22 25 1009.4 - 0.0 - - - - - - -
31/04:30pm 18.7 WSW 22 25 1009.3 - 0.0 - - - - - - -
31/04:00pm 18.3 WSW 21 24 1009.3 - 0.0 - - - - - - -
31/03:30pm 17.6 WSW 21 24 1009.3 - 0.0 - - - - - - -
31/03:00pm 17.4 WSW 20 23 1009.3 - 0.0 - - - - - - -
31/02:30pm 18.1 WSW 19 22 1009.5 - 0.0 - - - - - - -
31/02:00pm 18.2 WSW 21 25 1009.5 - 0.0 - - - - - - -
31/01:30pm 19.2 WSW 22 24 1009.5 - 0.0 - - - - - - -
31/01:00pm 19.6 WSW 19 21 1009.7 - 0.0 - - - - - - -
31/12:30pm 19.5 WSW 18 20 1009.8 - 0.0 - - - - - - -
31/12:00pm 19.1 WSW 16 20 1009.7 - 0.0 - - - - - - -
31/11:30am 18.6 WSW 16 19 1009.9 - 0.0 - - - - - - -
31/11:00am 18.0 SW 19 21 1009.9 - 0.0 - - - - - - -
31/10:30am 18.5 SW 17 22 1009.9 - 0.0 - - - - - - -
31/10:00am 16.7 SSW 17 24 1010.1 - 0.0 - - - - - - -
31/09:30am 16.6 SSW 15 22 1010.0 - 0.0 - - - - - - -
31/09:20am 15.8 SW 16 25 1010.1 - 0.0 - - - - - - -
31/09:09am 16.0 S 21 27 1010.1 - 0.0 - - - - - - -
31/09:00am 16.2 SW 20 24 1009.8 - 0.0 - - - - - - -
31/08:30am 16.2 SW 20 24 1009.8 - 0.0 - - - - - - -
31/08:00am 15.9 SSW 21 29 1009.6 - 0.0 - - - - - - -
31/07:30am 15.7 SSW 20 27 1009.4 - 0.0 - - - - - - -
31/07:00am 15.5 SSW 18 23 1009.3 - 0.0 - - - - - - -
31/06:30am 15.5 SSW 16 21 1009.2 - 0.0 - - - - - - -
31/06:00am 15.4 SW 17 24 1008.8 - 0.0 - - - - - - -
31/05:45am 15.3 SSW 15 25 1009.0 - 0.0 - - - - - - -
31/05:30am 15.3 SSW 15 20 1008.9 - 0.0 - - - - - - -
31/05:00am 15.4 SSW 18 24 1008.9 - 0.0 - - - - - - -
31/04:30am 15.4 SW 17 24 1009.0 - 0.0 - - - - - - -
31/04:00am 15.4 SSW 16 21 1009.2 - 0.0 - - - - - - -
31/03:30am 15.5 SW 16 23 1009.4 - 0.0 - - - - - - -
31/03:00am 15.7 SW 19 22 1009.5 - 0.0 - - - - - - -
31/02:30am 15.8 SW 19 22 1009.8 - 0.0 - - - - - - -
31/02:00am 15.9 SW 19 22 1010.1 - 0.0 - - - - - - -
31/01:30am 15.9 WSW 19 22 1010.3 - 0.0 - - - - - - -
31/01:00am 15.8 WSW 17 21 1010.6 - 0.0 - - - - - - -
31/12:30am 15.8 WSW 17 20 1011.0 - 0.0 - - - - - - -
31/12:00am 15.8 WSW 17 21 1011.0 - 0.0 - - - - - - -
 
Date/Time
EDT
Temp

°C
Wind Pressure Rain
since 9am
mm
Weather Cloud Vis
km
Sea
Height
m
Swell
Dir
 
Speed
knots
Gust
knots
hPa Trend Height
m
Period
s
Dir
30/11:30pm 15.8 WSW 17 21 1011.5 - 0.0 - - - - - - -
30/11:00pm 15.6 WSW 19 22 1011.7 - 0.0 - - - - - - -
30/10:30pm 15.7 WSW 20 23 1011.9 - 0.0 - - - - - - -
30/10:00pm 15.6 WSW 19 22 1012.0 - 0.0 - - - - - - -
30/09:30pm 15.4 WSW 19 21 1012.0 - 0.0 - - - - - - -
30/09:00pm 15.4 WSW 19 23 1011.8 - 0.0 - - - - - - -
30/08:30pm 15.3 WSW 20 23 1012.0 - 0.0 - - - - - - -
30/08:00pm 15.5 WSW 20 25 1012.0 - 0.0 - - - - - - -
30/07:30pm 15.6 SW 21 25 1012.0 - 0.0 - - - - - - -
30/07:00pm 15.8 SW 21 24 1012.0 - 0.0 - - - - - - -
30/06:30pm 16.1 SW 22 26 1012.1 - 0.0 - - - - - - -
30/06:00pm 16.3 SW 23 27 1012.1 - 0.0 - - - - - - -
30/05:30pm 16.8 SSW 15 23 1012.4 - 0.0 - - - - - - -
30/05:00pm 18.5 SSW 15 22 1012.7 - 0.0 - - - - - - -
30/04:30pm 17.1 SW 19 23 1012.9 - 0.0 - - - - - - -
30/04:00pm 18.5 SW 15 18 1013.2 - 0.0 - - - - - - -
30/03:30pm 16.8 WSW 17 20 1013.5 - 0.0 - - - - - - -
30/03:00pm 17.8 SW 16 21 1013.4 - 0.0 - - - - - - -
30/02:30pm 17.1 SW 14 19 1014.0 - 0.0 - - - - - - -
30/02:00pm 17.3 SW 15 20 1014.2 - 0.0 - - - - - - -
30/01:30pm 16.4 SW 16 19 1014.4 - 0.0 - - - - - - -
30/01:00pm 17.1 SW 15 19 1014.6 - 0.0 - - - - - - -

Other Formats:

Comma delimited format used in spreadsheet applications
http://www.bom.gov.au/fwo/IDT60701/IDT60701.94949.axf

JavaScript Object Notation format (JSON) in row-major order
http://www.bom.gov.au/fwo/IDT60701/IDT60701.94949.json